Kaneohe Bay, Hawaii
Current Conditions -  °F | °C
As of 11:08 AM on Thursday 18 Dec 2014 (Local Time) from PHNG Reporting Station
Light Rain Light Rain  
Wind Chill: 74°   Ceiling: 2100
Heat Index: 74°   Visibility: 10mi
Dew Point: 69°   Wind: 9mph
Humidity: 85%   Direction: 90°E
Pressure: 30.18"   Gusts: 18mph
Location:  21.42°N, 157.8°W
Report Text: PHNG 182108Z 09008G16KT 10SM -RA FEW015 BKN021 OVC043 23/21 A3018 RMK AO2 P0001 T02330206 $
Loading
Personal Weather Stations






























Interactive Weather Map New forecast layout! Learn more

10-Day Weather Forecast

Advertisements
Track Severe Weather on mobile